sensor_id;sensor_type;location;lat;lon;timestamp;pressure;altitude;pressure_sealevel;temperature;humidity
35121;BME280;21297;52.008;4.576;2023-05-20T00:01:04;49209.41;;;-143.47;75.06
35121;BME280;21297;52.008;4.576;2023-05-20T00:03:50;49244.81;;;-143.47;75.10
35121;BME280;21297;52.008;4.576;2023-05-20T00:06:35;49201.53;;;-143.47;75.01
35121;BME280;21297;52.008;4.576;2023-05-20T00:09:21;49197.59;;;-143.47;74.68
35121;BME280;21297;52.008;4.576;2023-05-20T00:12:07;49179.91;;;-143.47;75.26
35121;BME280;21297;52.008;4.576;2023-05-20T00:14:52;49234.97;;;-143.47;74.17
35121;BME280;21297;52.008;4.576;2023-05-20T00:17:38;49231.03;;;-143.47;74.13
35121;BME280;21297;52.008;4.576;2023-05-20T00:20:24;49213.34;;;-143.47;74.16
35121;BME280;21297;52.008;4.576;2023-05-20T00:23:09;49185.81;;;-143.47;74.38
35121;BME280;21297;52.008;4.576;2023-05-20T00:25:55;49203.50;;;-143.47;73.97
35121;BME280;21297;52.008;4.576;2023-05-20T00:28:40;49181.88;;;-143.47;74.00
35121;BME280;21297;52.008;4.576;2023-05-20T00:31:26;49189.72;;;-143.47;73.46
35121;BME280;21297;52.008;4.576;2023-05-20T00:34:12;49170.06;;;-143.47;74.36
35121;BME280;21297;52.008;4.576;2023-05-20T00:36:57;49152.38;;;-143.47;74.46
35121;BME280;21297;52.008;4.576;2023-05-20T00:39:43;49154.34;;;-143.47;74.50
35121;BME280;21297;52.008;4.576;2023-05-20T00:42:29;49177.94;;;-143.47;74.24
35121;BME280;21297;52.008;4.576;2023-05-20T00:45:15;49118.94;;;-143.47;74.52
35121;BME280;21297;52.008;4.576;2023-05-20T00:48:01;49140.56;;;-143.47;74.79
35121;BME280;21297;52.008;4.576;2023-05-20T00:50:49;49154.34;;;-143.47;74.50
35121;BME280;21297;52.008;4.576;2023-05-20T00:53:35;49122.88;;;-143.47;74.73
35121;BME280;21297;52.008;4.576;2023-05-20T00:56:21;49156.31;;;-143.47;75.46
35121;BME280;21297;52.008;4.576;2023-05-20T00:59:08;49128.78;;;-143.47;76.69
35121;BME280;21297;52.008;4.576;2023-05-20T01:01:53;49111.06;;;-143.47;76.00
35121;BME280;21297;52.008;4.576;2023-05-20T01:04:40;49158.28;;;-143.47;75.28
35121;BME280;21297;52.008;4.576;2023-05-20T01:07:31;49124.84;;;-143.47;75.73
35121;BME280;21297;52.008;4.576;2023-05-20T01:10:17;49162.19;;;-143.47;76.01
35121;BME280;21297;52.008;4.576;2023-05-20T01:13:04;49138.59;;;-143.47;76.47
35121;BME280;21297;52.008;4.576;2023-05-20T01:15:54;49122.88;;;-143.47;77.37
35121;BME280;21297;52.008;4.576;2023-05-20T01:18:41;49146.47;;;-143.47;76.84
35121;BME280;21297;52.008;4.576;2023-05-20T01:21:29;49134.66;;;-143.47;77.21
35121;BME280;21297;52.008;4.576;2023-05-20T01:24:15;49128.78;;;-143.47;76.90
35121;BME280;21297;52.008;4.576;2023-05-20T01:27:00;49097.31;;;-143.47;76.95
35121;BME280;21297;52.008;4.576;2023-05-20T01:29:46;49130.75;;;-143.47;77.89
35121;BME280;21297;52.008;4.576;2023-05-20T01:32:37;49146.47;;;-143.47;77.04
35121;BME280;21297;52.008;4.576;2023-05-20T01:35:25;49126.81;;;-143.47;77.34
35121;BME280;21297;52.008;4.576;2023-05-20T01:38:11;49128.78;;;-143.47;77.53
35121;BME280;21297;52.008;4.576;2023-05-20T01:40:58;49124.84;;;-143.47;77.53
35121;BME280;21297;52.008;4.576;2023-05-20T01:43:45;49138.59;;;-143.47;77.62
35121;BME280;21297;52.008;4.576;2023-05-20T01:46:32;49130.75;;;-143.47;77.81
35121;BME280;21297;52.008;4.576;2023-05-20T01:49:18;49142.53;;;-143.47;77.68
35121;BME280;21297;52.008;4.576;2023-05-20T01:52:04;49146.47;;;-143.47;78.09
35121;BME280;21297;52.008;4.576;2023-05-20T01:54:50;49132.72;;;-143.47;79.04
35121;BME280;21297;52.008;4.576;2023-05-20T01:57:36;49138.59;;;-143.47;78.73
35121;BME280;21297;52.008;4.576;2023-05-20T02:00:22;49115.00;;;-143.47;80.58
35121;BME280;21297;52.008;4.576;2023-05-20T02:03:07;49124.84;;;-143.47;79.45
35121;BME280;21297;52.008;4.576;2023-05-20T02:05:53;49130.75;;;-143.47;78.95
35121;BME280;21297;52.008;4.576;2023-05-20T02:08:38;49122.88;;;-143.47;79.32
35121;BME280;21297;52.008;4.576;2023-05-20T02:11:24;49120.91;;;-143.47;80.05
35121;BME280;21297;52.008;4.576;2023-05-20T02:14:10;49093.38;;;-143.47;80.00
35121;BME280;21297;52.008;4.576;2023-05-20T02:16:56;49146.47;;;-143.47;80.11
35121;BME280;21297;52.008;4.576;2023-05-20T02:19:43;49081.56;;;-143.47;80.16
35121;BME280;21297;52.008;4.576;2023-05-20T02:22:28;49118.94;;;-143.47;79.37
35121;BME280;21297;52.008;4.576;2023-05-20T02:25:14;49120.91;;;-143.47;80.60
35121;BME280;21297;52.008;4.576;2023-05-20T02:28:00;49134.66;;;-143.47;79.76
35121;BME280;21297;52.008;4.576;2023-05-20T02:30:46;49107.16;;;-143.47;80.69
35121;BME280;21297;52.008;4.576;2023-05-20T02:33:31;49160.25;;;-143.47;79.00
35121;BME280;21297;52.008;4.576;2023-05-20T02:36:17;49166.13;;;-143.47;79.00
35121;BME280;21297;52.008;4.576;2023-05-20T02:39:03;49170.06;;;-143.47;79.11
35121;BME280;21297;52.008;4.576;2023-05-20T02:41:49;49170.06;;;-143.47;78.27
35121;BME280;21297;52.008;4.576;2023-05-20T02:44:34;49136.63;;;-143.47;79.76
35121;BME280;21297;52.008;4.576;2023-05-20T02:47:20;49175.97;;;-143.47;80.11
35121;BME280;21297;52.008;4.576;2023-05-20T02:50:06;49122.88;;;-143.47;80.20
35121;BME280;21297;52.008;4.576;2023-05-20T02:52:53;49103.22;;;-143.47;80.53
35121;BME280;21297;52.008;4.576;2023-05-20T02:55:39;49097.31;;;-143.47;79.90
35121;BME280;21297;52.008;4.576;2023-05-20T02:58:25;49177.94;;;-143.47;78.55
35121;BME280;21297;52.008;4.576;2023-05-20T03:01:12;49116.97;;;-143.47;80.48
35121;BME280;21297;52.008;4.576;2023-05-20T03:03:57;49132.72;;;-143.47;80.61
35121;BME280;21297;52.008;4.576;2023-05-20T03:06:44;49111.06;;;-143.47;80.47
35121;BME280;21297;52.008;4.576;2023-05-20T03:09:31;49115.00;;;-143.47;80.06
35121;BME280;21297;52.008;4.576;2023-05-20T03:12:17;49130.75;;;-143.47;80.64
35121;BME280;21297;52.008;4.576;2023-05-20T03:15:03;49154.34;;;-143.47;79.55
35121;BME280;21297;52.008;4.576;2023-05-20T03:17:49;49146.47;;;-143.47;80.58
35121;BME280;21297;52.008;4.576;2023-05-20T03:20:34;49132.72;;;-143.47;79.65
35121;BME280;21297;52.008;4.576;2023-05-20T03:23:23;49154.34;;;-143.47;79.33
35121;BME280;21297;52.008;4.576;2023-05-20T03:26:08;49118.94;;;-143.47;80.97
35121;BME280;21297;52.008;4.576;2023-05-20T03:28:54;49134.66;;;-143.47;80.05
35121;BME280;21297;52.008;4.576;2023-05-20T03:31:40;49154.34;;;-143.47;80.78
35121;BME280;21297;52.008;4.576;2023-05-20T03:34:25;49128.78;;;-143.47;80.30
35121;BME280;21297;52.008;4.576;2023-05-20T03:37:14;49160.25;;;-143.47;80.32
35121;BME280;21297;52.008;4.576;2023-05-20T03:40:00;49109.09;;;-143.47;80.71
35121;BME280;21297;52.008;4.576;2023-05-20T03:42:45;49138.59;;;-143.47;80.77
35121;BME280;21297;52.008;4.576;2023-05-20T03:45:31;49134.66;;;-143.47;80.95
35121;BME280;21297;52.008;4.576;2023-05-20T03:48:18;49166.13;;;-143.47;81.43
35121;BME280;21297;52.008;4.576;2023-05-20T03:51:04;49136.63;;;-143.47;80.79
35121;BME280;21297;52.008;4.576;2023-05-20T03:53:50;49118.94;;;-143.47;81.34
35121;BME280;21297;52.008;4.576;2023-05-20T03:56:36;49154.34;;;-143.47;81.38
35121;BME280;21297;52.008;4.576;2023-05-20T03:59:21;49115.00;;;-143.47;81.53
35121;BME280;21297;52.008;4.576;2023-05-20T04:02:08;49152.38;;;-143.47;80.87
35121;BME280;21297;52.008;4.576;2023-05-20T04:04:54;49134.66;;;-143.47;81.44
35121;BME280;21297;52.008;4.576;2023-05-20T04:07:42;49128.78;;;-143.47;81.43
35121;BME280;21297;52.008;4.576;2023-05-20T04:10:27;49132.72;;;-143.47;80.41
35121;BME280;21297;52.008;4.576;2023-05-20T04:13:13;49148.44;;;-143.47;80.27
35121;BME280;21297;52.008;4.576;2023-05-20T04:15:59;49134.66;;;-143.47;80.80
35121;BME280;21297;52.008;4.576;2023-05-20T04:18:46;49185.81;;;-143.47;80.11
35121;BME280;21297;52.008;4.576;2023-05-20T04:21:32;49154.34;;;-143.47;79.24
35121;BME280;21297;52.008;4.576;2023-05-20T04:24:18;49142.53;;;-143.47;79.24
35121;BME280;21297;52.008;4.576;2023-05-20T04:27:03;49197.59;;;-143.47;79.14
35121;BME280;21297;52.008;4.576;2023-05-20T04:29:50;49172.03;;;-143.47;79.23
35121;BME280;21297;52.008;4.576;2023-05-20T04:32:36;49185.81;;;-143.47;79.25
35121;BME280;21297;52.008;4.576;2023-05-20T04:35:22;49201.53;;;-143.47;78.97
35121;BME280;21297;52.008;4.576;2023-05-20T04:38:10;49201.53;;;-143.47;78.57
35121;BME280;21297;52.008;4.576;2023-05-20T04:40:55;49238.91;;;-143.47;77.60
35121;BME280;21297;52.008;4.576;2023-05-20T04:43:42;49166.13;;;-143.47;78.83
35121;BME280;21297;52.008;4.576;2023-05-20T04:46:28;49189.72;;;-143.47;79.11
35121;BME280;21297;52.008;4.576;2023-05-20T04:49:14;49227.09;;;-143.47;78.01
35121;BME280;21297;52.008;4.576;2023-05-20T04:52:00;49217.28;;;-143.47;78.68
35121;BME280;21297;52.008;4.576;2023-05-20T04:54:45;49252.66;;;-143.47;79.08
35121;BME280;21297;52.008;4.576;2023-05-20T04:57:31;49229.06;;;-143.47;79.02
35121;BME280;21297;52.008;4.576;2023-05-20T05:00:18;49217.28;;;-143.47;79.34
35121;BME280;21297;52.008;4.576;2023-05-20T05:03:04;49201.53;;;-143.47;78.92
35121;BME280;21297;52.008;4.576;2023-05-20T05:05:49;49280.19;;;-143.47;78.45
35121;BME280;21297;52.008;4.576;2023-05-20T05:08:35;49246.75;;;-143.47;78.16
35121;BME280;21297;52.008;4.576;2023-05-20T05:11:21;49278.22;;;-143.47;77.32
35121;BME280;21297;52.008;4.576;2023-05-20T05:14:07;49260.53;;;-143.47;77.26
35121;BME280;21297;52.008;4.576;2023-05-20T05:16:53;49236.94;;;-143.47;77.06
35121;BME280;21297;52.008;4.576;2023-05-20T05:19:38;49276.25;;;-143.47;76.99
35121;BME280;21297;52.008;4.576;2023-05-20T05:22:24;49252.66;;;-143.47;77.34
35121;BME280;21297;52.008;4.576;2023-05-20T05:25:10;49272.34;;;-143.47;77.15
35121;BME280;21297;52.008;4.576;2023-05-20T05:27:56;49325.44;;;-143.47;77.25
35121;BME280;21297;52.008;4.576;2023-05-20T05:30:42;49278.22;;;-143.47;77.45
35121;BME280;21297;52.008;4.576;2023-05-20T05:33:27;49254.63;;;-143.47;78.06
35121;BME280;21297;52.008;4.576;2023-05-20T05:36:14;49276.25;;;-143.47;77.61
35121;BME280;21297;52.008;4.576;2023-05-20T05:39:00;49299.88;;;-143.47;76.41
35121;BME280;21297;52.008;4.576;2023-05-20T05:41:46;49295.94;;;-143.47;76.46
35121;BME280;21297;52.008;4.576;2023-05-20T05:44:31;49368.69;;;-143.47;76.74
35121;BME280;21297;52.008;4.576;2023-05-20T05:47:17;49354.94;;;-143.47;76.36
35121;BME280;21297;52.008;4.576;2023-05-20T05:50:03;49376.56;;;-143.47;76.05
35121;BME280;21297;52.008;4.576;2023-05-20T05:52:49;49349.03;;;-143.47;76.57
35121;BME280;21297;52.008;4.576;2023-05-20T05:55:35;49301.84;;;-143.47;77.43
35121;BME280;21297;52.008;4.576;2023-05-20T05:58:20;49329.38;;;-143.47;76.64
35121;BME280;21297;52.008;4.576;2023-05-20T06:01:06;49425.72;;;-143.47;75.65
35121;BME280;21297;52.008;4.576;2023-05-20T06:03:52;49402.13;;;-143.47;74.38
35121;BME280;21297;52.008;4.576;2023-05-20T06:06:38;49392.28;;;-143.47;73.82
35121;BME280;21297;52.008;4.576;2023-05-20T06:09:23;49411.97;;;-143.47;73.00
35121;BME280;21297;52.008;4.576;2023-05-20T06:12:09;49439.50;;;-143.47;73.32
35121;BME280;21297;52.008;4.576;2023-05-20T06:14:55;49423.75;;;-143.47;73.42
35121;BME280;21297;52.008;4.576;2023-05-20T06:17:40;49451.28;;;-143.47;71.52
35121;BME280;21297;52.008;4.576;2023-05-20T06:20:26;49447.38;;;-143.47;69.92
35121;BME280;21297;52.008;4.576;2023-05-20T06:23:11;49437.53;;;-143.47;69.80
35121;BME280;21297;52.008;4.576;2023-05-20T06:25:58;49445.41;;;-143.47;69.86
35121;BME280;21297;52.008;4.576;2023-05-20T06:28:44;49461.13;;;-143.47;68.79
35121;BME280;21297;52.008;4.576;2023-05-20T06:31:30;49457.19;;;-143.47;68.40
35121;BME280;21297;52.008;4.576;2023-05-20T06:34:15;49474.91;;;-143.47;68.55
35121;BME280;21297;52.008;4.576;2023-05-20T06:37:01;49413.94;;;-143.47;68.42
35121;BME280;21297;52.008;4.576;2023-05-20T06:39:47;49469.00;;;-143.47;68.72
35121;BME280;21297;52.008;4.576;2023-05-20T06:42:38;49518.16;;;-143.47;67.67
35121;BME280;21297;52.008;4.576;2023-05-20T06:45:23;49502.44;;;-143.47;67.58
35121;BME280;21297;52.008;4.576;2023-05-20T06:48:09;49539.78;;;-143.47;66.57
35121;BME280;21297;52.008;4.576;2023-05-20T06:50:55;49524.06;;;-143.47;66.42
35121;BME280;21297;52.008;4.576;2023-05-20T06:53:41;49563.41;;;-143.47;66.47
35121;BME280;21297;52.008;4.576;2023-05-20T06:56:26;49529.97;;;-143.47;65.52
35121;BME280;21297;52.008;4.576;2023-05-20T06:59:12;49545.69;;;-143.47;66.05
35121;BME280;21297;52.008;4.576;2023-05-20T07:01:58;49531.94;;;-143.47;65.08
35121;BME280;21297;52.008;4.576;2023-05-20T07:04:44;49559.47;;;-143.47;65.46
35121;BME280;21297;52.008;4.576;2023-05-20T07:07:29;49563.41;;;-143.47;64.60
35121;BME280;21297;52.008;4.576;2023-05-20T07:10:15;49539.78;;;-143.47;64.89
35121;BME280;21297;52.008;4.576;2023-05-20T07:13:01;49598.78;;;-143.47;64.21
35121;BME280;21297;52.008;4.576;2023-05-20T07:15:46;49665.66;;;-143.47;64.35
35121;BME280;21297;52.008;4.576;2023-05-20T07:18:32;49649.94;;;-143.47;63.75
35121;BME280;21297;52.008;4.576;2023-05-20T07:21:18;49598.78;;;-143.47;63.03
35121;BME280;21297;52.008;4.576;2023-05-20T07:24:04;49622.41;;;-143.47;62.66
35121;BME280;21297;52.008;4.576;2023-05-20T07:26:50;49651.91;;;-143.47;62.50
35121;BME280;21297;52.008;4.576;2023-05-20T07:29:36;49697.13;;;-143.47;61.66
35121;BME280;21297;52.008;4.576;2023-05-20T07:32:22;49726.63;;;-143.47;61.73
35121;BME280;21297;52.008;4.576;2023-05-20T07:35:07;49720.75;;;-143.47;62.55
35121;BME280;21297;52.008;4.576;2023-05-20T07:37:53;49732.53;;;-143.47;60.65
35121;BME280;21297;52.008;4.576;2023-05-20T07:40:39;49701.06;;;-143.47;62.27
35121;BME280;21297;52.008;4.576;2023-05-20T07:43:25;49736.47;;;-143.47;61.28
35121;BME280;21297;52.008;4.576;2023-05-20T07:46:11;49756.13;;;-143.47;61.20
35121;BME280;21297;52.008;4.576;2023-05-20T07:48:57;49791.53;;;-143.47;60.21
35121;BME280;21297;52.008;4.576;2023-05-20T07:51:43;49830.88;;;-143.47;59.66
35121;BME280;21297;52.008;4.576;2023-05-20T07:54:28;49852.53;;;-143.47;58.96
35121;BME280;21297;52.008;4.576;2023-05-20T07:57:14;49801.38;;;-143.47;59.09
35121;BME280;21297;52.008;4.576;2023-05-20T08:00:00;49826.94;;;-143.47;59.69
35121;BME280;21297;52.008;4.576;2023-05-20T08:02:45;49848.59;;;-143.47;59.31
35121;BME280;21297;52.008;4.576;2023-05-20T08:05:31;49919.38;;;-143.47;58.72
35121;BME280;21297;52.008;4.576;2023-05-20T08:08:17;49889.88;;;-143.47;57.62
35121;BME280;21297;52.008;4.576;2023-05-20T08:11:02;49842.69;;;-143.47;57.39
35121;BME280;21297;52.008;4.576;2023-05-20T08:13:48;49866.28;;;-143.47;58.28
35121;BME280;21297;52.008;4.576;2023-05-20T08:16:34;49901.69;;;-143.47;57.36
35121;BME280;21297;52.008;4.576;2023-05-20T08:19:20;49893.81;;;-143.47;55.85
35121;BME280;21297;52.008;4.576;2023-05-20T08:22:06;49954.78;;;-143.47;54.76
35121;BME280;21297;52.008;4.576;2023-05-20T08:24:53;50009.88;;;-143.47;55.83
35121;BME280;21297;52.008;4.576;2023-05-20T08:27:38;50074.78;;;-143.47;55.28
35121;BME280;21297;52.008;4.576;2023-05-20T08:30:24;49964.63;;;-143.47;54.06
35121;BME280;21297;52.008;4.576;2023-05-20T08:33:10;50027.56;;;-143.47;54.29
35121;BME280;21297;52.008;4.576;2023-05-20T08:35:56;50120.03;;;-143.47;54.11
35121;BME280;21297;52.008;4.576;2023-05-20T08:38:42;50070.84;;;-143.47;54.67
35121;BME280;21297;52.008;4.576;2023-05-20T08:41:28;50157.41;;;-143.47;54.32
35121;BME280;21297;52.008;4.576;2023-05-20T08:44:16;50131.81;;;-143.47;51.68
35121;BME280;21297;52.008;4.576;2023-05-20T08:47:03;50139.69;;;-143.47;50.69
35121;BME280;21297;52.008;4.576;2023-05-20T08:49:49;50122.00;;;-143.47;51.19
35121;BME280;21297;52.008;4.576;2023-05-20T08:52:37;50088.56;;;-143.47;50.69
35121;BME280;21297;52.008;4.576;2023-05-20T08:55:25;50169.19;;;-143.47;50.23
35121;BME280;21297;52.008;4.576;2023-05-20T08:58:11;50151.50;;;-143.47;50.52
35121;BME280;21297;52.008;4.576;2023-05-20T09:00:57;50214.44;;;-143.47;50.18
35121;BME280;21297;52.008;4.576;2023-05-20T09:03:43;50184.94;;;-143.47;50.41
35121;BME280;21297;52.008;4.576;2023-05-20T09:06:29;50243.94;;;-143.47;50.19
35121;BME280;21297;52.008;4.576;2023-05-20T09:09:14;50238.03;;;-143.47;50.04
35121;BME280;21297;52.008;4.576;2023-05-20T09:12:01;50222.31;;;-143.47;49.23
35121;BME280;21297;52.008;4.576;2023-05-20T09:14:48;50179.03;;;-143.47;50.07
35121;BME280;21297;52.008;4.576;2023-05-20T09:17:35;50216.41;;;-143.47;49.15
35121;BME280;21297;52.008;4.576;2023-05-20T09:20:21;50222.31;;;-143.47;47.97
35121;BME280;21297;52.008;4.576;2023-05-20T09:23:08;50287.22;;;-143.47;48.80
35121;BME280;21297;52.008;4.576;2023-05-20T09:25:54;50212.47;;;-143.47;47.42
35121;BME280;21297;52.008;4.576;2023-05-20T09:28:40;50318.69;;;-143.47;47.01
35121;BME280;21297;52.008;4.576;2023-05-20T09:31:26;50350.16;;;-143.47;46.71
35121;BME280;21297;52.008;4.576;2023-05-20T09:34:13;50432.78;;;-143.47;46.37
35121;BME280;21297;52.008;4.576;2023-05-20T09:36:59;50438.69;;;-143.47;45.22
35121;BME280;21297;52.008;4.576;2023-05-20T09:39:54;50417.06;;;-143.47;45.60
35121;BME280;21297;52.008;4.576;2023-05-20T09:42:51;50483.94;;;-143.47;44.97
35121;BME280;21297;52.008;4.576;2023-05-20T09:45:37;50582.28;;;-143.47;43.61
35121;BME280;21297;52.008;4.576;2023-05-20T09:48:24;50619.66;;;-143.47;43.54
35121;BME280;21297;52.008;4.576;2023-05-20T09:51:11;50676.72;;;-143.47;42.59
35121;BME280;21297;52.008;4.576;2023-05-20T09:53:58;50432.78;;;-143.47;41.30
35121;BME280;21297;52.008;4.576;2023-05-20T09:56:46;50527.22;;;-143.47;41.69
35121;BME280;21297;52.008;4.576;2023-05-20T09:59:33;50513.44;;;-143.47;41.18
35121;BME280;21297;52.008;4.576;2023-05-20T10:02:21;50493.78;;;-143.47;41.46
35121;BME280;21297;52.008;4.576;2023-05-20T10:05:13;50448.53;;;-143.47;41.15
35121;BME280;21297;52.008;4.576;2023-05-20T10:11:14;50515.41;;;-143.47;40.92
35121;BME280;21297;52.008;4.576;2023-05-20T10:17:06;50511.47;;;-143.47;40.28
35121;BME280;21297;52.008;4.576;2023-05-20T10:19:58;50548.84;;;-143.47;39.79
35121;BME280;21297;52.008;4.576;2023-05-20T10:22:54;50562.63;;;-143.47;39.74
35121;BME280;21297;52.008;4.576;2023-05-20T10:25:52;50662.94;;;-143.47;39.30
35121;BME280;21297;52.008;4.576;2023-05-20T10:28:39;50588.19;;;-143.47;38.69
35121;BME280;21297;52.008;4.576;2023-05-20T10:31:25;50580.31;;;-143.47;38.83
35121;BME280;21297;52.008;4.576;2023-05-20T10:34:15;50617.72;;;-143.47;39.18
35121;BME280;21297;52.008;4.576;2023-05-20T10:37:04;50590.16;;;-143.47;38.88
35121;BME280;21297;52.008;4.576;2023-05-20T10:39:50;50558.69;;;-143.47;39.19
35121;BME280;21297;52.008;4.576;2023-05-20T10:42:36;50605.91;;;-143.47;39.22
35121;BME280;21297;52.008;4.576;2023-05-20T10:45:26;50661.00;;;-143.47;38.48
35121;BME280;21297;52.008;4.576;2023-05-20T10:48:19;50749.50;;;-143.47;38.65
35121;BME280;21297;52.008;4.576;2023-05-20T10:51:12;50834.09;;;-143.47;38.77
35121;BME280;21297;52.008;4.576;2023-05-20T10:53:58;50802.63;;;-143.47;39.80
35121;BME280;21297;52.008;4.576;2023-05-20T10:56:51;50741.66;;;-143.47;41.67
35121;BME280;21297;52.008;4.576;2023-05-20T10:59:37;50525.25;;;-143.47;41.32
35121;BME280;21297;52.008;4.576;2023-05-20T11:02:23;50419.03;;;-143.47;41.79
35121;BME280;21297;52.008;4.576;2023-05-20T11:05:15;50515.41;;;-143.47;43.09
35121;BME280;21297;52.008;4.576;2023-05-20T11:08:06;50377.72;;;-143.47;43.80
35121;BME280;21297;52.008;4.576;2023-05-20T11:10:33;50426.88;;;-143.47;43.08
35121;BME280;21297;52.008;4.576;2023-05-20T11:13:00;50519.34;;;-143.47;42.58
35121;BME280;21297;52.008;4.576;2023-05-20T11:15:47;50546.88;;;-143.47;42.36
35121;BME280;21297;52.008;4.576;2023-05-20T11:18:33;50625.56;;;-143.47;42.79
35121;BME280;21297;52.008;4.576;2023-05-20T11:21:19;50507.53;;;-143.47;42.15
35121;BME280;21297;52.008;4.576;2023-05-20T11:24:04;50603.94;;;-143.47;42.68
35121;BME280;21297;52.008;4.576;2023-05-20T11:26:50;50598.03;;;-143.47;42.42
35121;BME280;21297;52.008;4.576;2023-05-20T11:29:37;50605.91;;;-143.47;41.79
35121;BME280;21297;52.008;4.576;2023-05-20T11:32:24;50542.94;;;-143.47;43.20
35121;BME280;21297;52.008;4.576;2023-05-20T11:35:24;50531.16;;;-143.47;41.73
35121;BME280;21297;52.008;4.576;2023-05-20T11:38:10;50460.31;;;-143.47;42.30
35121;BME280;21297;52.008;4.576;2023-05-20T11:40:56;50623.59;;;-143.47;41.92
35121;BME280;21297;52.008;4.576;2023-05-20T11:43:42;50527.22;;;-143.47;41.84
35121;BME280;21297;52.008;4.576;2023-05-20T11:46:27;50661.00;;;-143.47;41.78
35121;BME280;21297;52.008;4.576;2023-05-20T11:49:14;50605.91;;;-143.47;41.52
35121;BME280;21297;52.008;4.576;2023-05-20T11:52:02;50731.81;;;-143.47;41.43
35121;BME280;21297;52.008;4.576;2023-05-20T11:54:53;50855.75;;;-143.47;41.26
35121;BME280;21297;52.008;4.576;2023-05-20T11:57:39;50725.91;;;-143.47;40.81
35121;BME280;21297;52.008;4.576;2023-05-20T12:00:25;50794.75;;;-143.47;40.95
35121;BME280;21297;52.008;4.576;2023-05-20T12:03:11;50560.66;;;-143.47;42.64
35121;BME280;21297;52.008;4.576;2023-05-20T12:05:59;50546.88;;;-143.47;43.19
35121;BME280;21297;52.008;4.576;2023-05-20T12:08:45;50647.22;;;-143.47;41.56
35121;BME280;21297;52.008;4.576;2023-05-20T12:11:35;50718.03;;;-143.47;41.50
35121;BME280;21297;52.008;4.576;2023-05-20T12:14:21;50631.47;;;-143.47;40.75
35121;BME280;21297;52.008;4.576;2023-05-20T12:17:07;50548.84;;;-143.47;41.64
35121;BME280;21297;52.008;4.576;2023-05-20T12:19:54;50672.78;;;-143.47;40.86
35121;BME280;21297;52.008;4.576;2023-05-20T12:22:40;50558.69;;;-143.47;41.24
35121;BME280;21297;52.008;4.576;2023-05-20T12:25:25;50645.25;;;-143.47;41.41
35121;BME280;21297;52.008;4.576;2023-05-20T12:28:11;50625.56;;;-143.47;40.66
35121;BME280;21297;52.008;4.576;2023-05-20T12:30:57;50739.69;;;-143.47;41.19
35121;BME280;21297;52.008;4.576;2023-05-20T12:33:43;50786.91;;;-143.47;40.29
35121;BME280;21297;52.008;4.576;2023-05-20T12:36:28;50657.06;;;-143.47;41.24
35121;BME280;21297;52.008;4.576;2023-05-20T12:39:14;50598.03;;;-143.47;42.21
35121;BME280;21297;52.008;4.576;2023-05-20T12:42:02;50483.94;;;-143.47;41.50
35121;BME280;21297;52.008;4.576;2023-05-20T12:44:47;50546.88;;;-143.47;42.27
35121;BME280;21297;52.008;4.576;2023-05-20T12:47:34;50519.34;;;-143.47;41.64
35121;BME280;21297;52.008;4.576;2023-05-20T12:50:20;50647.22;;;-143.47;41.40
35121;BME280;21297;52.008;4.576;2023-05-20T12:53:06;50704.25;;;-143.47;40.83
35121;BME280;21297;52.008;4.576;2023-05-20T12:55:52;50574.44;;;-143.47;42.03
35121;BME280;21297;52.008;4.576;2023-05-20T12:58:38;50680.66;;;-143.47;41.48
35121;BME280;21297;52.008;4.576;2023-05-20T13:01:23;50548.84;;;-143.47;41.09
35121;BME280;21297;52.008;4.576;2023-05-20T13:04:09;50566.56;;;-143.47;41.00
35121;BME280;21297;52.008;4.576;2023-05-20T13:06:54;50578.34;;;-143.47;40.55
35121;BME280;21297;52.008;4.576;2023-05-20T13:09:40;50743.63;;;-143.47;40.69
35121;BME280;21297;52.008;4.576;2023-05-20T13:12:26;50826.25;;;-143.47;40.16
35121;BME280;21297;52.008;4.576;2023-05-20T13:15:12;50802.63;;;-143.47;40.54
35121;BME280;21297;52.008;4.576;2023-05-20T13:17:59;50653.13;;;-143.47;40.14
35121;BME280;21297;52.008;4.576;2023-05-20T13:20:45;50828.22;;;-143.47;40.40
35121;BME280;21297;52.008;4.576;2023-05-20T13:23:31;50938.38;;;-143.47;38.98
35121;BME280;21297;52.008;4.576;2023-05-20T13:26:16;51148.91;;;-143.47;38.43
35121;BME280;21297;52.008;4.576;2023-05-20T13:29:02;51341.72;;;-143.47;37.27
35121;BME280;21297;52.008;4.576;2023-05-20T13:31:48;51080.03;;;-143.47;37.05
35121;BME280;21297;52.008;4.576;2023-05-20T13:34:33;50865.59;;;-143.47;38.40
35121;BME280;21297;52.008;4.576;2023-05-20T13:37:19;50912.81;;;-143.47;39.25
35121;BME280;21297;52.008;4.576;2023-05-20T13:40:05;50845.91;;;-143.47;38.94
35121;BME280;21297;52.008;4.576;2023-05-20T13:42:51;50826.25;;;-143.47;39.00
35121;BME280;21297;52.008;4.576;2023-05-20T13:45:37;50938.38;;;-143.47;40.29
35121;BME280;21297;52.008;4.576;2023-05-20T13:48:22;50790.81;;;-143.47;39.40
35121;BME280;21297;52.008;4.576;2023-05-20T13:51:08;50706.22;;;-143.47;39.30
35121;BME280;21297;52.008;4.576;2023-05-20T13:53:34;50670.81;;;-143.47;39.71
35121;BME280;21297;52.008;4.576;2023-05-20T13:55:59;50635.41;;;-143.47;40.99
35121;BME280;21297;52.008;4.576;2023-05-20T13:58:25;50676.72;;;-143.47;40.73
35121;BME280;21297;52.008;4.576;2023-05-20T14:00:50;50731.81;;;-143.47;40.83
35121;BME280;21297;52.008;4.576;2023-05-20T14:03:16;50645.25;;;-143.47;40.76
35121;BME280;21297;52.008;4.576;2023-05-20T14:05:41;50623.59;;;-143.47;40.71
35121;BME280;21297;52.008;4.576;2023-05-20T14:08:06;50643.28;;;-143.47;40.81
35121;BME280;21297;52.008;4.576;2023-05-20T14:10:32;50676.72;;;-143.47;40.44
35121;BME280;21297;52.008;4.576;2023-05-20T14:15:35;50737.72;;;-143.47;40.75
35121;BME280;21297;52.008;4.576;2023-05-20T14:18:00;50769.19;;;-143.47;39.74
35121;BME280;21297;52.008;4.576;2023-05-20T14:20:26;50672.78;;;-143.47;40.64
35121;BME280;21297;52.008;4.576;2023-05-20T14:22:51;50753.44;;;-143.47;40.87